createdAt,value
2023-01-15T01:50:37.478Z,14.00
2023-01-15T01:53:14.664Z,14.98
2023-01-15T01:55:42.511Z,15.18
2023-01-15T01:58:10.569Z,15.90
2023-01-15T02:00:39.245Z,13.88
2023-01-15T02:03:07.995Z,15.25
2023-01-15T02:05:44.191Z,15.25
2023-01-15T02:08:12.682Z,14.45
2023-01-15T02:10:41.718Z,15.05
2023-01-15T02:13:39.525Z,14.38
2023-01-15T02:16:45.955Z,14.13
2023-01-15T02:19:22.398Z,13.73
2023-01-15T02:21:58.022Z,14.32
2023-01-15T02:24:37.921Z,14.50
2023-01-15T02:27:18.234Z,15.63
2023-01-15T02:29:49.101Z,14.20
2023-01-15T02:32:42.511Z,14.52
2023-01-15T02:35:19.884Z,14.73
2023-01-15T02:37:51.549Z,16.65
2023-01-15T02:40:22.587Z,14.80
2023-01-15T02:42:53.135Z,14.40
2023-01-15T02:45:33.103Z,14.52
2023-01-15T02:48:14.600Z,14.95
2023-01-15T02:50:50.936Z,14.55
2023-01-15T02:53:23.953Z,14.15
2023-01-15T02:55:54.380Z,14.55
2023-01-15T02:58:33.359Z,13.90
2023-01-15T03:01:07.884Z,13.43
2023-01-15T03:03:55.993Z,14.48
2023-01-15T03:06:33.244Z,15.55
2023-01-15T03:09:01.518Z,15.45
2023-01-15T03:11:34.199Z,15.50
2023-01-15T03:14:09.824Z,15.63
2023-01-15T03:17:01.747Z,14.63
2023-01-15T03:19:40.082Z,13.52
2023-01-15T03:22:33.815Z,15.20
2023-01-15T03:25:24.019Z,13.65
2023-01-15T03:27:55.528Z,14.82
2023-01-15T03:30:26.416Z,14.20
2023-01-15T03:32:55.080Z,14.45
2023-01-15T03:35:45.961Z,15.43
2023-01-15T03:38:32.723Z,15.30
2023-01-15T03:41:14.749Z,15.60
2023-01-15T03:43:50.925Z,16.92
2023-01-15T03:46:38.361Z,15.90
2023-01-15T03:49:25.444Z,13.88
2023-01-15T03:52:00.949Z,14.57
2023-01-15T03:54:44.861Z,15.48
2023-01-15T03:57:24.947Z,14.20
2023-01-15T03:59:59.341Z,13.85
2023-01-15T04:02:27.879Z,16.08
2023-01-15T04:05:02.745Z,17.45
2023-01-15T04:07:31.023Z,16.52
2023-01-15T04:09:59.794Z,16.63
2023-01-15T04:12:28.348Z,16.33
2023-01-15T04:15:01.030Z,16.33
2023-01-15T04:17:29.399Z,14.93
2023-01-15T04:19:57.923Z,16.15
2023-01-15T04:22:26.045Z,16.52
2023-01-15T04:24:55.289Z,15.75
2023-01-15T04:27:23.315Z,16.10
2023-01-15T04:29:51.129Z,15.93
2023-01-15T04:32:19.399Z,16.20
2023-01-15T04:34:47.211Z,15.90
2023-01-15T04:37:17.790Z,15.45
2023-01-15T04:39:47.102Z,14.98
2023-01-15T04:42:33.964Z,15.02
2023-01-15T04:45:02.280Z,14.48
2023-01-15T04:47:31.087Z,14.13
2023-01-15T04:49:59.168Z,15.18
2023-01-15T04:52:27.221Z,15.95
2023-01-15T04:54:55.792Z,16.52
2023-01-15T04:57:23.850Z,15.55
2023-01-15T04:59:52.424Z,15.57
2023-01-15T05:02:20.331Z,15.52
2023-01-15T05:04:48.384Z,15.40
2023-01-15T05:07:17.887Z,15.10
2023-01-15T05:09:45.874Z,14.65
2023-01-15T05:12:13.669Z,14.18
2023-01-15T05:14:42.495Z,13.23
2023-01-15T05:17:10.722Z,14.50
2023-01-15T05:19:38.901Z,14.80
2023-01-15T05:22:07.209Z,15.82
2023-01-15T05:24:35.216Z,14.25
2023-01-15T05:27:05.368Z,15.05
2023-01-15T05:29:33.435Z,14.70
2023-01-15T05:32:01.498Z,14.68
2023-01-15T05:34:29.780Z,18.80
2023-01-15T05:36:57.798Z,14.27
2023-01-15T05:39:25.717Z,13.57
2023-01-15T05:41:54.274Z,14.18
2023-01-15T05:44:26.933Z,14.25
2023-01-15T05:47:03.294Z,14.77
2023-01-15T05:49:33.880Z,14.63
2023-01-15T05:52:02.652Z,14.00
2023-01-15T05:54:33.118Z,14.27
2023-01-15T05:57:01.680Z,13.15
2023-01-15T05:59:31.233Z,13.02
2023-01-15T06:02:00.932Z,16.27
2023-01-15T06:04:29.528Z,14.13
2023-01-15T06:06:57.604Z,14.07
2023-01-15T06:09:28.011Z,14.32
2023-01-15T06:11:56.449Z,14.27
2023-01-15T06:14:25.108Z,15.25
2023-01-15T06:16:53.955Z,14.13
2023-01-15T06:19:23.946Z,14.55
2023-01-15T06:21:51.811Z,15.75
2023-01-15T06:24:20.980Z,15.55
2023-01-15T06:26:50.585Z,17.35
2023-01-15T06:29:20.715Z,15.90
2023-01-15T06:31:49.732Z,15.82
2023-01-15T06:34:18.830Z,14.68
2023-01-15T06:36:46.912Z,16.02
2023-01-15T06:39:18.593Z,15.38
2023-01-15T06:42:04.977Z,15.55
2023-01-15T06:47:22.228Z,15.73
2023-01-15T06:49:57.964Z,14.68
2023-01-15T06:52:26.867Z,15.07
2023-01-15T06:54:54.780Z,16.92
2023-01-15T06:57:22.893Z,15.60
2023-01-15T06:59:51.210Z,15.65
2023-01-15T07:02:19.510Z,15.90
2023-01-15T10:45:45.659Z,22.13
2023-01-15T10:49:08.479Z,19.45
2023-01-15T10:51:45.906Z,20.27
2023-01-15T10:55:04.747Z,18.15
2023-01-15T10:58:16.987Z,20.77
2023-01-15T11:01:24.344Z,21.42
2023-01-15T11:04:04.903Z,19.45
2023-01-15T11:06:37.383Z,19.13
2023-01-15T11:09:24.737Z,19.88
2023-01-15T11:12:00.381Z,20.33
2023-01-15T11:14:54.137Z,21.10
2023-01-15T11:18:13.943Z,20.17
2023-01-15T11:21:00.412Z,20.98
2023-01-15T11:23:39.951Z,19.52
2023-01-15T11:26:11.466Z,20.13
2023-01-15T11:28:46.726Z,21.52
2023-01-15T11:31:22.145Z,20.58
2023-01-15T11:34:17.225Z,21.42
2023-01-15T11:39:40.717Z,23.15
2023-01-15T11:42:35.519Z,22.65
2023-01-15T11:45:30.857Z,21.65
2023-01-15T11:48:21.386Z,21.35
2023-01-15T11:51:07.767Z,20.42
2023-01-15T11:53:49.291Z,22.60
2023-01-15T11:56:24.282Z,20.60
2023-01-15T11:58:55.736Z,23.50
2023-01-15T12:01:31.680Z,22.80
2023-01-15T12:04:45.916Z,22.45
2023-01-15T12:07:27.383Z,21.45
2023-01-15T12:10:40.600Z,23.10
2023-01-15T12:13:37.433Z,22.15
2023-01-15T12:16:42.491Z,20.58
2023-01-15T12:19:39.789Z,21.60
2023-01-15T12:23:08.961Z,22.70
2023-01-15T12:25:45.789Z,21.67
2023-01-15T12:28:28.288Z,18.83
2023-01-15T12:31:02.387Z,20.98
2023-01-15T12:33:53.037Z,21.50
2023-01-15T12:36:53.832Z,22.10
2023-01-15T12:39:37.202Z,21.58
2023-01-15T12:42:43.247Z,21.73
2023-01-15T12:45:27.281Z,23.08
2023-01-15T12:48:44.010Z,22.25
2023-01-15T12:51:43.414Z,22.83
2023-01-15T12:54:34.212Z,22.50
2023-01-15T12:57:11.205Z,22.75
2023-01-15T12:59:57.260Z,22.90
2023-01-15T13:02:35.079Z,22.23
2023-01-15T13:05:26.025Z,22.90
2023-01-15T13:08:01.259Z,20.67
2023-01-15T13:10:51.933Z,22.92
2023-01-15T13:13:27.341Z,23.85
2023-01-15T13:16:02.240Z,22.85
2023-01-15T13:18:50.408Z,24.70
2023-01-15T13:21:26.616Z,24.58
2023-01-15T13:24:05.271Z,25.35
2023-01-15T13:27:00.672Z,25.38
2023-01-15T13:29:37.286Z,24.13
2023-01-15T13:32:46.260Z,25.50
2023-01-15T13:35:34.274Z,23.27
2023-01-15T13:38:40.992Z,22.90
2023-01-15T13:41:11.276Z,23.15
2023-01-15T13:43:42.993Z,23.70
2023-01-15T13:49:23.046Z,24.45
2023-01-15T13:51:58.223Z,27.50
2023-01-15T13:54:41.235Z,24.58
2023-01-15T13:57:27.717Z,23.20
2023-01-15T14:00:39.428Z,26.67
2023-01-15T14:03:29.543Z,23.35
2023-01-15T14:06:09.131Z,22.20
2023-01-15T14:08:52.897Z,25.17
2023-01-15T14:11:40.569Z,25.48
2023-01-15T14:14:27.262Z,23.95
2023-01-15T14:17:16.393Z,25.08
2023-01-15T14:19:47.394Z,23.75
2023-01-15T14:22:43.188Z,19.70
2023-01-15T14:25:56.374Z,20.92
2023-01-15T14:29:03.788Z,23.30
2023-01-15T14:32:18.185Z,23.10
2023-01-15T14:34:59.205Z,23.25
2023-01-15T14:38:14.488Z,21.58
2023-01-15T14:41:00.610Z,23.38
2023-01-15T14:43:36.838Z,26.20
2023-01-15T14:46:54.009Z,27.13
2023-01-15T14:49:37.093Z,25.48
2023-01-15T14:53:48.920Z,26.83
2023-01-15T14:57:41.788Z,24.70
2023-01-15T15:00:17.794Z,25.10
2023-01-15T15:02:46.149Z,27.35
2023-01-15T15:05:37.512Z,27.95
2023-01-15T15:08:18.495Z,27.15
2023-01-15T15:10:50.922Z,27.77
2023-01-15T15:13:40.625Z,25.55
2023-01-15T15:16:27.269Z,27.75
2023-01-15T15:19:25.301Z,25.55
2023-01-15T15:22:12.866Z,29.92
2023-01-15T15:24:48.073Z,28.25
2023-01-15T15:27:31.244Z,26.15
2023-01-15T15:30:11.044Z,24.48
2023-01-15T15:37:13.896Z,24.45
2023-01-15T15:40:11.461Z,23.90
2023-01-15T15:43:16.057Z,23.17
2023-01-15T15:46:18.414Z,25.23
2023-01-15T15:49:07.530Z,20.50
2023-01-15T15:52:47.858Z,21.10
2023-01-15T15:55:37.020Z,21.35
2023-01-15T15:58:05.540Z,23.65
2023-01-15T16:00:39.139Z,23.58
2023-01-15T16:03:24.280Z,25.08
2023-01-15T20:18:18.466Z,41.38
2023-01-15T20:20:56.558Z,44.53
2023-01-15T20:23:25.022Z,36.38
2023-01-15T20:26:06.047Z,35.10
2023-01-15T20:28:36.350Z,35.75
2023-01-15T20:31:05.959Z,36.55
2023-01-15T20:33:47.415Z,37.17
2023-01-15T20:36:19.109Z,36.90
2023-01-15T20:38:55.297Z,39.40
2023-01-15T20:41:52.841Z,35.10
2023-01-15T20:44:53.290Z,28.85
2023-01-15T20:47:48.433Z,31.90
2023-01-15T20:50:19.253Z,27.73
2023-01-15T20:52:49.236Z,29.98
2023-01-15T20:55:25.097Z,30.77
2023-01-15T20:57:53.208Z,30.27
2023-01-15T21:00:27.448Z,30.80
2023-01-15T21:03:02.192Z,30.85
2023-01-15T21:05:31.755Z,31.20
2023-01-15T21:08:01.168Z,30.45
2023-01-15T21:10:33.398Z,31.73
2023-01-15T21:13:04.885Z,28.93
2023-01-15T21:15:39.060Z,29.67
2023-01-15T21:18:13.128Z,29.00
2023-01-15T21:20:41.314Z,27.98
2023-01-15T21:23:10.060Z,28.17
2023-01-15T21:25:38.718Z,26.70
2023-01-15T21:29:13.982Z,27.05
2023-01-15T21:31:49.211Z,26.60
2023-01-15T21:35:32.060Z,26.83
2023-01-15T21:38:00.561Z,25.13
2023-01-15T21:41:14.284Z,26.98
2023-01-15T21:44:39.107Z,25.83
2023-01-15T21:48:49.561Z,25.55
2023-01-15T21:51:29.002Z,26.42
2023-01-15T21:54:34.162Z,25.05
2023-01-15T21:57:37.182Z,25.35
2023-01-15T22:00:13.747Z,27.00
